Pagrindinis puslapis
METAR-TAF:

METAR-TAF

Oro uostai :

Siudad Chuaresas, Meksika

platuma: 31-38N, ilguma: 106-26W, Aukštis: 1171 m

Dabartinis oras

Ataskaita buvo paskelbta 1 valandą ir 57 minutes, ne 02:46 UTC
Vėjas 11 kt iš Rytų
Temperatūra 31°C
Drėgmė 27%
Slėgis 1015 hPa
Matomumas: 16.1 km
Giedras dangus

METAR: MMCS 160246Z 09011KT 10SM SKC 31/10 A2997 RMK SLP020 52014 956

Laikas: 22:43 (04:43 UTC)

Prognozė

Ataskaita buvo paskelbta 12 valandos ir 23 minutes, ne 16:20 UTC
Prognozė galioja nuo 15 metu 18 UTC su 16 metu 18 UTC
Vėjas 8 kt iš Rytų/Pietryčių
Matomumas: 10 km
Išsisklaidę debesys ne aukštis 3000 ft
Išsisklaidę debesys ne aukštis 10000 ft
Su prošvaistėmis ne aukštis 25000 ft
Nuo 16 metu 0600 UTC
Vėjas 5 kt iš Rytų/Pietryčių
Matomumas: 10 km
Išsisklaidę debesys ne aukštis 3000 ft
Nuo 16 metu 1700 UTC
Vėjas 10 kt iš Rytų/Pietryčių
Matomumas: 10 km
Su prošvaistėmis ne aukštis 3000 ft
Su prošvaistėmis ne aukštis 8000 ft

TAF: MMCS 151620Z 1518/1618 12008KT P6SM SCT030 SCT100 BKN250 FM160600 12005KT P6SM SCT030 FM161700 12010KT P6SM BKN030 BKN080

Orai ataskaitas ir orų prognozės (METAR, TAF).

turimą stotys yra geltonos ir raudonos taškus žemėlapyje.

Perkelti pele per norėdami pamatyti stoties vardą.

Tada spustelėkite, norėdami matyti oro stebėjimo ir prognozės.

Norėdami pakeisti žemėlapį: spustelėkite ant žalios mygtukų su juodo kryžiaus žemyn,; žalią mygtuką su brūkšneliu, jei norite nutolinti; arba žalių rodyklių gretimoms žemėlapius.


METAR-TAF: